Flight Track Log - Related Links

Times and Time Zones

All times are in EDT time to prevent confusion due to time zone crossing. See the N745VJ flight status page for this flight to view local times or setup timezone preferences in your user account.

Time Position Orientation Groundspeed Altitude Reporting Facility
EDT Latitude Longitude Course Direction KTS MPH feet Rate Location/Type
Tue 07:20:28 PM 39.3000 -94.7333 180° South 162 186 1,500  Level Kansas City TRACON
Tue 07:20:58 PM 39.2667 -94.7333 180° South 154 177 2,800 2,267 Climbing Kansas City TRACON
Tue 07:21:58 PM 39.2167 -94.7167 166° South 231 266 4,900 2,550 Climbing Kansas City TRACON
Tue 07:22:58 PM 39.1500 -94.6833 159° South 284 327 7,900 2,921 Climbing Kansas City TRACON
Tue 07:23:14 PM 39.1469 -94.6653 102° East 278 320 8,600 2,385 Climbing Kansas City Center
Tue 07:24:16 PM 39.1369 -94.5625 97° East 301 346 11,000 2,613 Climbing Kansas City Center
Tue 07:25:18 PM 39.1239 -94.4208 97° East 356 410 14,000 2,806 Climbing Kansas City Center
Tue 07:26:20 PM 39.1119 -94.2958 97° East 366 421 16,800 2,758 Climbing Kansas City Center
Tue 07:27:22 PM 39.0975 -94.1467 97° East 376 433 19,700 2,341 Climbing Kansas City Center
Tue 07:28:23 PM 39.0883 -94.0133 95° East 388 447 21,600 2,049 Climbing Kansas City Center
Tue 07:29:25 PM 39.0781 -93.8492 95° East 412 474 23,900 1,984 Climbing Kansas City Center
Tue 07:30:27 PM 39.0700 -93.7044 94° East 422 486 25,700 1,742 Climbing Kansas City Center
Tue 07:31:29 PM 39.0572 -93.5319 95° East 435 501 27,500 1,548 Climbing Kansas City Center
Tue 07:32:31 PM 39.0492 -93.3969 94° East 438 504 28,900 1,403 Climbing Kansas City Center
Tue 07:33:33 PM 39.0336 -93.2036 96° East 452 520 30,400 1,317 Climbing Kansas City Center
Tue 07:34:34 PM 38.9961 -93.0600 109° East 462 532 31,600 1,317 Climbing Kansas City Center
Tue 07:35:36 PM 38.9514 -92.9014 110° East 466 536 33,100 1,500 Climbing Kansas City Center
Tue 07:36:38 PM 38.9064 -92.7469 110° East 464 534 34,700 1,548 Climbing Kansas City Center
Tue 07:37:40 PM 38.8531 -92.5606 110° East 462 532 36,300 1,065 Climbing Kansas City Center
Tue 07:38:42 PM 38.8072 -92.4067 111° Southeast 461 531 36,900 341 Climbing Kansas City Center
Tue 07:39:43 PM 38.7614 -92.2514 111° Southeast 461 531 37,000 49 Climbing Kansas City Center
Tue 07:40:45 PM 38.7153 -92.0969 111° Southeast 461 531 37,000  Level Kansas City Center
Tue 07:41:47 PM 38.6697 -91.9425 111° Southeast 461 531 37,000  Level Kansas City Center
Tue 07:42:49 PM 38.6242 -91.7889 111° Southeast 460 529 37,000  Level Kansas City Center
Tue 07:43:50 PM 38.5767 -91.6350 112° Southeast 460 529 37,000  Level Kansas City Center
Tue 07:44:52 PM 38.5306 -91.4800 111° Southeast 463 533 37,000  Level Kansas City Center
Tue 07:45:54 PM 38.4814 -91.3214 112° Southeast 461 531 37,000  Level Kansas City Center
Tue 07:46:56 PM 38.4358 -91.1692 111° Southeast 461 531 37,000  Level Kansas City Center
Tue 07:47:57 PM 38.3894 -91.0172 111° Southeast 462 532 37,000  Level Kansas City Center
Tue 07:48:59 PM 38.3317 -90.8336 112° Southeast 466 536 37,000  Level Kansas City Center
Tue 07:50:01 PM 38.2842 -90.6814 112° Southeast 468 539 37,000  Level Kansas City Center
Tue 07:51:03 PM 38.2369 -90.5286 111° Southeast 464 534 37,000  Level Kansas City Center
Tue 07:52:04 PM 38.1914 -90.3858 112° Southeast 456 525 37,000 -49 Level Kansas City Center
Tue 07:53:06 PM 38.1450 -90.2392 112° Southeast 454 522 36,900  Descending Kansas City Center
Tue 07:54:08 PM 38.0986 -90.0867 111° Southeast 465 535 37,000 98 Climbing Kansas City Center
Tue 07:55:09 PM 38.0411 -89.9053 112° Southeast 461 531 37,100 49 Climbing Kansas City Center
Tue 07:56:11 PM 37.9925 -89.7531 112° Southeast 466 536 37,100 -49 Level Kansas City Center
Tue 07:57:12 PM 37.9397 -89.5925 113° Southeast 464 534 37,000 -49 Descending Kansas City Center
Tue 07:58:14 PM 37.8925 -89.4422 112° Southeast 461 531 37,000  Level Kansas City Center
Tue 07:59:15 PM 37.8428 -89.2933 113° Southeast 461 531 37,000  Level Kansas City Center
Tue 08:00:17 PM 37.7922 -89.1386 112° Southeast 464 534 37,000  Level Kansas City Center
Tue 08:01:18 PM 37.7428 -88.9889 113° Southeast 461 531 37,000  Level Kansas City Center
Tue 08:02:20 PM 37.6931 -88.8397 113° Southeast 459 528 37,000  Level Kansas City Center
Tue 08:03:22 PM 37.6422 -88.6917 113° Southeast 458 527 37,000  Level Kansas City Center
Tue 08:03:56 PM 37.6175 -88.6108 111° Southeast 460 529 37,000 64 Level Memphis Center
Tue 08:04:56 PM 37.5653 -88.4575 113° Southeast 460 529 37,100  Climbing Memphis Center
Tue 08:05:56 PM 37.5172 -88.3150 113° Southeast 454 522 37,000 -75 Descending Memphis Center
Tue 08:06:16 PM 37.4928 -88.2442 113° Southeast 462 532 37,000  Level Indianapolis Center
Tue 08:07:18 PM 37.4633 -88.0853 103° East 459 528 37,000  Level Indianapolis Center
Tue 08:07:56 PM 37.4553 -88.0006 97° East 448 516 37,000  Level Memphis Center
Tue 08:08:56 PM 37.4333 -87.8417 100° East 454 522 37,000  Level Memphis Center
Tue 08:09:56 PM 37.4031 -87.6861 104° East 462 532 37,000  Level Memphis Center
Tue 08:10:56 PM 37.3519 -87.5392 114° Southeast 462 532 37,000  Level Memphis Center
Tue 08:11:56 PM 37.2964 -87.3950 116° Southeast 457 526 37,000 -50 Level Memphis Center
Tue 08:12:56 PM 37.2408 -87.2511 116° Southeast 457 526 36,900  Descending Memphis Center
Tue 08:14:29 PM 37.0797 -87.1183 147° Southeast 468 539 37,000 50 Climbing Indianapolis Center
Tue 08:14:56 PM 37.0136 -87.0833 157° South 452 520 37,000  Level Memphis Center
Tue 08:15:56 PM 36.8994 -87.0181 155° Southeast 457 526 37,000  Level Memphis Center
Tue 08:16:56 PM 36.7853 -86.9556 156° South 450 518 37,000  Level Memphis Center
Tue 08:17:56 PM 36.6708 -86.8931 156° South 445 512 37,000  Level Memphis Center
Tue 08:18:56 PM 36.5700 -86.7939 142° Southeast 450 518 37,000  Level Memphis Center
Tue 08:19:56 PM 36.4775 -86.6872 137° Southeast 455 524 37,000  Level Memphis Center
Tue 08:20:56 PM 36.3911 -86.5906 138° Southeast 455 524 37,000  Level Memphis Center
Tue 08:21:56 PM 36.2961 -86.4842 138° Southeast 460 529 37,000  Level Memphis Center
Tue 08:22:56 PM 36.2011 -86.3808 139° Southeast 460 529 37,000  Level Memphis Center
Tue 08:23:56 PM 36.1081 -86.2747 137° Southeast 455 524 37,000  Level Memphis Center
Tue 08:24:56 PM 36.0042 -86.1594 138° Southeast 460 529 37,000  Level Memphis Center
Tue 08:25:56 PM 35.9267 -86.0300 126° Southeast 460 529 37,000  Level Memphis Center
Tue 08:26:56 PM 35.8678 -85.8947 118° Southeast 455 524 37,000  Level Memphis Center
Tue 08:28:57 PM 35.7497 -85.6200 118° Southeast 458 527 37,000  Level Atlanta Center
Tue 08:29:57 PM 35.7475 -85.4692 91° East 431 496 37,000  Level Atlanta Center
Tue 08:30:57 PM 35.7617 -85.3233 83° East 425 489 37,000  Level Atlanta Center
Tue 08:31:57 PM 35.7778 -85.1753 82° East 425 489 37,000  Level Atlanta Center
Tue 08:32:57 PM 35.7914 -85.0294 83° East 430 495 37,000 -150 Level Atlanta Center
Tue 08:33:57 PM 35.8094 -84.8683 82° East 442 509 36,700 -600 Descending Atlanta Center
Tue 08:34:57 PM 35.8228 -84.7250 83° East 456 525 35,800 -850 Descending Atlanta Center
Tue 08:35:57 PM 35.8403 -84.5717 82° East 463 533 35,000 -600 Descending Atlanta Center
Tue 08:36:57 PM 35.8553 -84.4231 83° East 457 526 34,600 -700 Descending Atlanta Center
Tue 08:37:57 PM 35.8703 -84.2667 83° East 457 526 33,600 -1,000 Descending Atlanta Center
Tue 08:38:57 PM 35.8831 -84.1131 84° East 457 526 32,600 -1,000 Descending Atlanta Center
Tue 08:39:57 PM 35.8978 -83.9644 83° East 447 514 31,600 -850 Descending Atlanta Center
Tue 08:40:57 PM 35.9036 -83.8158 87° East 437 503 30,900 -850 Descending Atlanta Center
Tue 08:41:57 PM 35.9011 -83.6619 91° East 437 503 29,900 -950 Descending Atlanta Center
Tue 08:42:57 PM 35.8986 -83.5081 91° East 437 503 29,000 -450 Descending Atlanta Center
Tue 08:43:57 PM 35.8936 -83.3467 92° East 449 517 29,000 -200 Level Atlanta Center
Tue 08:44:57 PM 35.8906 -83.1878 91° East 455 524 28,600 -700 Descending Atlanta Center
Tue 08:45:57 PM 35.8789 -83.0289 95° East 460 529 27,600 -1,000 Descending Atlanta Center
Tue 08:46:57 PM 35.8483 -82.8681 103° East 465 535 26,600 -950 Descending Atlanta Center
Tue 08:47:57 PM 35.8217 -82.7147 102° East 465 535 25,700 -1,000 Descending Atlanta Center
Tue 08:48:57 PM 35.7928 -82.5564 103° East 465 535 24,600 -1,050 Descending Atlanta Center
Tue 08:49:57 PM 35.7658 -82.4186 104° East 445 512 23,600 -1,550 Descending Atlanta Center
Tue 08:50:57 PM 35.7411 -82.2889 103° East 398 458 21,500 -1,650 Descending Atlanta Center
Tue 08:51:57 PM 35.7164 -82.1589 103° East 370 426 20,300 -1,550 Descending Atlanta Center
Tue 08:52:57 PM 35.6978 -82.0467 102° East 347 399 18,400 -2,200 Descending Atlanta Center
Tue 08:53:57 PM 35.6750 -81.9322 104° East 334 384 15,900 -2,200 Descending Atlanta Center
Tue 08:54:57 PM 35.6544 -81.8281 104° East 334 384 14,000 -1,965 Descending Atlanta Center
Tue 08:55:50 PM 35.6300 -81.7417 109° East 307 353 12,200 -1,500 Descending Atlanta Center
Tue 08:56:57 PM 35.5944 -81.6278 111° Southeast 313 360 11,000 -567 Descending Atlanta Center
Tue 08:57:57 PM 35.5633 -81.5344 112° Southeast 308 354 11,000 -400 Level Atlanta Center
Tue 08:58:57 PM 35.5136 -81.4464 125° Southeast 303 349 10,200 -500 Descending Atlanta Center
Tue 08:59:57 PM 35.4822 -81.3506 112° Southeast 299 344 10,000 -240 Descending Atlanta Center
Tue 09:00:12 PM 35.4839 -81.3250 85° East 307 353 9,900 -1,200 Descending Atlanta Center
Tue 09:00:57 PM 35.4883 -81.2483 86° East 289 333 8,800 -1,180 Descending Atlanta Center
Tue 09:01:13 PM 35.4900 -81.2253 85° East 295 339 8,700 -900 Descending Atlanta Center
Tue 09:01:57 PM 35.4819 -81.1567 98° East 279 321 7,900 -1,180 Descending Atlanta Center
Tue 09:02:14 PM 35.4775 -81.1367 105° East 252 290 7,500 -1,900 Descending Atlanta Center
Tue 09:02:57 PM 35.4656 -81.0733 103° East 256 295 6,000 -1,881 Descending Atlanta Center
Tue 09:03:21 PM 35.4522 -81.0481 123° Southeast 244 281 5,400 -1,300 Descending Atlanta Center
Tue 09:03:57 PM 35.4222 -81.0161 139° Southeast 226 260 4,700 -1,082 Descending Atlanta Center
Tue 09:04:22 PM 35.4053 -80.9989 140° Southeast 211 243 4,300 -900 Descending Atlanta Center
Tue 09:04:57 PM 35.3797 -80.9819 152° Southeast 212 244 3,800 -982 Descending Atlanta Center
Tue 09:05:17 PM 35.3589 -80.9828 182° South 190 219 3,400 -1,034 Descending Atlanta Center
Tue 09:06:24 PM 35.3025 -80.9772 175° South 186 214 2,300 -885 Descending Atlanta Center
Tue 09:07:19 PM 35.2669 -80.9736 175° South 131 151 1,600 -764 Descending Atlanta Center
Tue 09:09:00 PM 35.2137 -80.9491 180° South  Level Estimated
Tue 09:16:00 PM 35.2137 -80.9491 39° Northeast  Level Estimated

Login

Don't have an account? Register now (free) for customized features, flight alerts, and more!